ไทเป, ไต้หวัน

02:44 PM CST วัน กรกฎาคม 24, 2016 (GMT +0800)
ITAIPEIT2 | | Change Station

Elev 30 ft 25.03 °N, 121.53 °E | Updated 52 seconds ago

Mostly Cloudy
มีเมฆคลุมเป็นส่วนใหญ่
91.6 ฟาเรนไฮน์
Feels Like 106 ฟาเรนไฮน์
N
4.0
ลม ความผันแปร ลม from ทางทิศตะวันตกเฉียงเหนือ
Gusts 9.0 mph

วันนี้
High -- | Low -- ฟาเรนไฮน์
--% Chance of Precip.
Yesterday
High -- | Low -- ฟาเรนไฮน์
Precip. -- นิ้ว
ความดัน 29.77 นิ้ว
ทัศนวิสัย 6.2 ไมล์
เมฆ Few 2000 ft
Few 2500 ft
มีเมฆคลุมเป็นส่วนใหญ่ 3000 ft
ดัชนีความร้อน 106 ฟาเรนไฮน์
อุณหภูมิที่อากาศอาจจับตัวเป็นหยาดน้ำค้าง 78 ฟาเรนไฮน์
ความชื้น 64%
Rainfall 0.00 นิ้ว
Snow Depth Not available.
5:17 AM 6:42 PM
ข้างแรม, 79% visible
METAR RCSS 240630Z 28009KT 250V330 9999 FEW020 FEW025TCU BKN030 33/22 Q1008 WS R10 NOSIG RMK TCU S A2979
ความดัน 29.77 นิ้ว
ทัศนวิสัย 6.2 ไมล์
เมฆ Few 2000 ft
Few 2500 ft
มีเมฆคลุมเป็นส่วนใหญ่ 3000 ft
ดัชนีความร้อน 106 ฟาเรนไฮน์
อุณหภูมิที่อากาศอาจจับตัวเป็นหยาดน้ำค้าง 78 ฟาเรนไฮน์
ความชื้น 64%
Rainfall 0.00 นิ้ว
Snow Depth Not available.
5:17 AM 6:42 PM
ข้างแรม, 79% visible
METAR RCSS 240630Z 28009KT 250V330 9999 FEW020 FEW025TCU BKN030 33/22 Q1008 WS R10 NOSIG RMK TCU S A2979

10-Day Weather Forecast

No radar image for this location.
×

Almanac

ดาราศาสตร์

Jul. 24, 2016 Rise Set
Actual Time
Civil Twilight
Nautical Twilight
Astronomical Twilight
Moon
Length Of Visible Light
ความยาวของวัน
Tomorrow will be .
, % of the Moon is Illuminated

Today's Extremes

Country Highs Country Lows

Community

WunderPhotos

Upload Photos

1,927,037 photos uploaded!

WunderBlog® & News

Nearby

Air Quality

  Air Quality AQ Index Pollutant
Not available.

Snow Depth

Station Depth Elevation

Earthquake Activity

City Distance Mag. Time & Date
Minimum magnitude displayed is 2.5.

Coastal Water Temperatures

สถานที่ อุณหภูมิ

Stations

Nearby Weather Stations

Station Location Temp ลมหนาว อุณหภูมิที่อากาศอาจจับตัวเป็นหยาดน้ำค้าง ความชื้น ลม Precip. Elev ปรับปรุงล่าสุด Type